createdAt,value
2023-08-12T00:02:48.871Z,15.09
2023-08-12T00:05:46.802Z,14.89
2023-08-12T00:08:43.873Z,14.90
2023-08-12T00:11:40.754Z,14.82
2023-08-12T00:14:37.619Z,14.96
2023-08-12T00:17:34.998Z,14.93
2023-08-12T00:20:31.897Z,14.72
2023-08-12T00:23:28.806Z,14.89
2023-08-12T00:26:25.667Z,14.55
2023-08-12T00:29:22.774Z,14.59
2023-08-12T00:32:19.991Z,14.89
2023-08-12T00:35:17.016Z,14.61
2023-08-12T00:38:14.053Z,14.65
2023-08-12T00:41:10.914Z,14.86
2023-08-12T00:44:08.040Z,14.66
2023-08-12T00:47:05.204Z,14.62
2023-08-12T00:50:02.196Z,14.74
2023-08-12T00:53:00.086Z,14.63
2023-08-12T00:55:57.519Z,14.88
2023-08-12T00:58:54.771Z,14.60
2023-08-12T01:01:51.690Z,14.60
2023-08-12T01:04:48.630Z,14.57
2023-08-12T01:07:47.351Z,14.70
2023-08-12T01:10:53.746Z,14.61
2023-08-12T01:14:24.654Z,14.62
2023-08-12T01:17:22.038Z,14.59
2023-08-12T01:20:27.630Z,14.61
2023-08-12T01:23:24.937Z,14.61
2023-08-12T01:26:21.826Z,14.56
2023-08-12T01:29:19.829Z,14.64
2023-08-12T01:32:32.816Z,14.64
2023-08-12T01:35:52.636Z,14.48
2023-08-12T01:38:52.952Z,14.64
2023-08-12T01:41:51.059Z,14.59
2023-08-12T01:44:49.151Z,14.64
2023-08-12T01:47:46.332Z,14.70
2023-08-12T01:50:48.383Z,14.64
2023-08-12T01:53:45.476Z,14.68
2023-08-12T01:56:43.389Z,14.64
2023-08-12T01:59:40.450Z,14.69
2023-08-12T02:02:37.404Z,14.80
2023-08-12T02:05:35.169Z,14.66
2023-08-12T02:08:32.134Z,14.79
2023-08-12T02:11:29.047Z,14.82
2023-08-12T02:14:25.933Z,14.70
2023-08-12T02:17:22.780Z,14.63
2023-08-12T02:20:19.699Z,14.61
2023-08-12T02:23:16.623Z,14.71
2023-08-12T02:26:13.520Z,14.70
2023-08-12T02:29:10.384Z,14.69
2023-08-12T02:32:07.424Z,14.65
2023-08-12T02:35:04.535Z,14.68
2023-08-12T02:38:01.447Z,14.79
2023-08-12T02:40:58.391Z,14.86
2023-08-12T02:43:55.254Z,14.69
2023-08-12T02:46:52.133Z,14.95
2023-08-12T02:49:49.091Z,14.70
2023-08-12T02:52:46.032Z,14.96
2023-08-12T02:55:42.973Z,14.80
2023-08-12T02:58:39.905Z,14.88
2023-08-12T03:01:36.916Z,14.62
2023-08-12T03:04:33.902Z,14.81
2023-08-12T03:07:30.819Z,14.76
2023-08-12T03:10:27.781Z,14.73
2023-08-12T03:13:24.700Z,14.74
2023-08-12T03:16:21.588Z,14.65
2023-08-12T03:19:18.460Z,14.70
2023-08-12T03:22:15.318Z,14.72
2023-08-12T03:25:12.341Z,14.56
2023-08-12T03:28:09.610Z,14.69
2023-08-12T03:31:06.524Z,14.46
2023-08-12T03:34:03.577Z,14.55
2023-08-12T03:37:00.557Z,14.51
2023-08-12T03:39:57.410Z,14.44
2023-08-12T03:42:54.285Z,14.46
2023-08-12T03:45:51.186Z,14.29
2023-08-12T03:48:48.166Z,14.60
2023-08-12T03:51:45.074Z,14.70
2023-08-12T03:54:41.961Z,14.63
2023-08-12T03:57:38.918Z,14.70
2023-08-12T04:00:35.901Z,14.68
2023-08-12T04:03:32.839Z,14.58
2023-08-12T04:06:29.738Z,14.56
2023-08-12T04:09:26.659Z,14.79
2023-08-12T04:12:23.540Z,14.91
2023-08-12T04:15:20.471Z,14.87
2023-08-12T04:18:17.601Z,14.65
2023-08-12T04:21:14.637Z,14.66
2023-08-12T04:24:11.529Z,14.85
2023-08-12T04:27:08.387Z,14.93
2023-08-12T04:30:06.811Z,14.83
2023-08-12T04:33:03.927Z,14.84
2023-08-12T04:36:00.811Z,14.56
2023-08-12T04:38:57.679Z,14.84
2023-08-12T04:41:54.555Z,14.86
2023-08-12T04:44:51.464Z,15.04
2023-08-12T04:47:48.379Z,14.98
2023-08-12T04:50:45.458Z,15.12
2023-08-12T04:53:42.431Z,15.09
2023-08-12T04:56:39.316Z,14.91
2023-08-12T04:59:36.190Z,15.17
2023-08-12T05:02:33.234Z,15.07
2023-08-12T05:05:30.212Z,15.19
2023-08-12T05:08:27.186Z,15.09
2023-08-12T05:11:24.059Z,15.20
2023-08-12T05:14:20.942Z,15.20
2023-08-12T05:17:17.803Z,15.36
2023-08-12T05:20:14.680Z,15.35
2023-08-12T05:23:11.550Z,15.35
2023-08-12T05:26:08.551Z,15.33
2023-08-12T05:29:05.496Z,15.27
2023-08-12T05:32:02.426Z,15.40
2023-08-12T05:34:59.510Z,15.47
2023-08-12T05:37:56.484Z,15.38
2023-08-12T05:40:53.809Z,15.47
2023-08-12T05:43:50.713Z,15.57
2023-08-12T05:46:47.658Z,15.69
2023-08-12T05:49:44.665Z,15.73
2023-08-12T05:52:41.579Z,15.71
2023-08-12T05:55:38.457Z,15.79
2023-08-12T05:58:35.344Z,15.62
2023-08-12T06:01:32.252Z,15.83
2023-08-12T06:04:29.608Z,15.98
2023-08-12T06:07:26.601Z,15.83
2023-08-12T06:10:23.584Z,16.08
2023-08-12T06:13:20.475Z,16.10
2023-08-12T06:16:17.412Z,16.21
2023-08-12T06:19:14.281Z,16.30
2023-08-12T06:22:11.563Z,16.33
2023-08-12T06:25:09.363Z,16.38
2023-08-12T06:28:06.557Z,16.48
2023-08-12T06:31:03.497Z,16.40
2023-08-12T06:34:00.598Z,16.47
2023-08-12T06:36:57.579Z,16.54
2023-08-12T06:39:54.438Z,16.52
2023-08-12T06:42:51.465Z,16.59
2023-08-12T06:45:48.393Z,16.66
2023-08-12T06:48:45.328Z,16.88
2023-08-12T06:51:42.284Z,16.97
2023-08-12T06:54:39.310Z,17.04
2023-08-12T06:57:36.253Z,17.04
2023-08-12T07:00:33.095Z,17.23
2023-08-12T07:03:30.457Z,17.33
2023-08-12T07:06:27.735Z,17.41
2023-08-12T07:09:24.720Z,17.43
2023-08-12T07:12:21.651Z,17.74
2023-08-12T07:15:18.528Z,17.73
2023-08-12T07:18:15.550Z,18.00
2023-08-12T07:21:12.503Z,18.00
2023-08-12T07:24:09.591Z,18.03
2023-08-12T07:27:07.943Z,18.29
2023-08-12T07:30:05.775Z,18.46
2023-08-12T07:33:02.939Z,18.34
2023-08-12T07:36:00.002Z,18.48
2023-08-12T07:38:57.213Z,18.64
2023-08-12T07:41:54.208Z,18.46
2023-08-12T07:44:51.129Z,18.64
2023-08-12T07:47:47.985Z,18.93
2023-08-12T07:50:45.392Z,18.92
2023-08-12T07:53:42.276Z,19.08
2023-08-12T07:56:39.152Z,19.22
2023-08-12T07:59:36.041Z,19.22
2023-08-12T08:02:33.014Z,19.25
2023-08-12T08:05:29.963Z,19.22
2023-08-12T08:08:26.970Z,19.37
2023-08-12T08:11:25.609Z,19.25
2023-08-12T08:14:22.710Z,19.09
2023-08-12T08:17:19.646Z,19.25
2023-08-12T08:20:16.706Z,19.42
2023-08-12T08:23:13.772Z,19.25
2023-08-12T08:26:11.271Z,19.49
2023-08-12T08:29:08.475Z,19.49
2023-08-12T08:32:05.718Z,19.51
2023-08-12T08:35:02.727Z,19.87
2023-08-12T08:37:59.681Z,20.01
2023-08-12T08:40:58.758Z,20.16
2023-08-12T08:43:56.878Z,20.09
2023-08-12T08:46:55.189Z,20.03
2023-08-12T08:49:52.165Z,20.05
2023-08-12T08:52:50.968Z,20.12
2023-08-12T08:55:48.693Z,20.56
2023-08-12T08:58:45.607Z,20.70
2023-08-12T09:01:45.270Z,20.66
2023-08-12T09:04:42.940Z,20.55
2023-08-12T09:07:41.631Z,20.64
2023-08-12T09:10:43.654Z,20.54
2023-08-12T09:13:40.584Z,21.09
2023-08-12T09:16:37.513Z,21.04
2023-08-12T09:19:34.480Z,20.93
2023-08-12T09:22:31.385Z,20.94
2023-08-12T09:25:30.458Z,21.48
2023-08-12T09:28:27.385Z,21.94
2023-08-12T09:31:25.760Z,21.64
2023-08-12T09:34:25.468Z,22.09
2023-08-12T09:37:24.996Z,21.70
2023-08-12T09:40:23.573Z,21.64
2023-08-12T09:43:25.620Z,22.25
2023-08-12T09:46:27.299Z,22.34
2023-08-12T09:49:24.226Z,22.85
2023-08-12T09:52:21.569Z,22.52
2023-08-12T09:55:21.040Z,22.44
2023-08-12T09:58:19.872Z,22.68
2023-08-12T10:01:24.463Z,22.51
2023-08-12T10:04:27.851Z,22.78
2023-08-12T10:07:26.013Z,22.97
2023-08-12T10:10:26.448Z,22.90
2023-08-12T10:13:23.556Z,22.73
2023-08-12T10:16:21.705Z,22.77
2023-08-12T10:19:22.260Z,22.54
2023-08-12T10:22:20.556Z,22.82
2023-08-12T10:25:23.109Z,23.63
2023-08-12T10:28:21.025Z,23.97
2023-08-12T10:31:19.516Z,24.26
2023-08-12T10:34:24.929Z,24.47
2023-08-12T10:37:21.913Z,24.74
2023-08-12T10:40:24.484Z,24.07
2023-08-12T10:43:21.408Z,24.22
2023-08-12T10:46:34.524Z,24.64
2023-08-12T10:49:43.249Z,24.94
2023-08-12T10:52:40.882Z,25.16
2023-08-12T10:55:37.841Z,24.19
2023-08-12T10:58:52.719Z,24.92
2023-08-12T11:01:49.822Z,24.75
2023-08-12T11:05:11.012Z,25.17
2023-08-12T11:08:08.311Z,24.79
2023-08-12T11:11:22.140Z,24.47
2023-08-12T11:14:19.676Z,24.42
2023-08-12T11:17:17.252Z,24.07
2023-08-12T11:20:14.965Z,24.00
2023-08-12T11:23:12.156Z,23.84
2023-08-12T11:26:10.679Z,23.39
2023-08-12T11:29:12.880Z,23.17
2023-08-12T11:32:10.269Z,23.04
2023-08-12T11:35:09.678Z,24.09
2023-08-12T11:38:08.365Z,24.60
2023-08-12T11:41:05.368Z,24.93
2023-08-12T11:44:02.321Z,25.56
2023-08-12T11:46:59.201Z,25.39
2023-08-12T11:49:56.160Z,25.60
2023-08-12T11:52:55.988Z,25.68
2023-08-12T11:55:52.934Z,25.70
2023-08-12T11:58:53.524Z,25.34
2023-08-12T12:01:51.250Z,25.91
2023-08-12T12:04:48.243Z,25.73
2023-08-12T12:07:45.132Z,26.19
2023-08-12T12:10:42.124Z,25.84
2023-08-12T12:13:39.052Z,26.27
2023-08-12T12:16:44.624Z,26.31
2023-08-12T12:19:42.727Z,25.97
2023-08-12T12:22:39.905Z,25.57
2023-08-12T12:25:36.926Z,26.05
2023-08-12T12:28:34.008Z,26.73
2023-08-12T12:31:33.536Z,26.49
2023-08-12T12:34:30.604Z,25.93
2023-08-12T12:37:28.452Z,25.78
2023-08-12T12:40:25.303Z,26.26
2023-08-12T12:43:22.212Z,25.79
2023-08-12T12:46:19.372Z,25.78
2023-08-12T12:49:16.266Z,25.55
2023-08-12T12:52:13.850Z,25.11
2023-08-12T12:55:11.096Z,24.66
2023-08-12T12:58:08.866Z,24.29
2023-08-12T13:01:07.543Z,24.47
2023-08-12T13:04:04.773Z,24.61
2023-08-12T13:07:01.891Z,23.94
2023-08-12T13:09:58.803Z,23.70
2023-08-12T13:12:55.690Z,23.44
2023-08-12T13:15:52.975Z,23.05
2023-08-12T13:18:49.862Z,22.95
2023-08-12T13:21:46.901Z,22.64
2023-08-12T13:24:43.787Z,22.70
2023-08-12T13:27:41.132Z,22.53
2023-08-12T13:30:38.051Z,22.61
2023-08-12T13:33:35.073Z,21.95
2023-08-12T13:36:32.014Z,20.22
2023-08-12T13:39:28.918Z,19.35
2023-08-12T13:42:31.973Z,18.68
2023-08-12T13:45:29.516Z,19.19
2023-08-12T13:48:26.586Z,19.07
2023-08-12T13:51:23.542Z,18.88
2023-08-12T13:54:20.519Z,19.30
2023-08-12T13:57:17.391Z,19.15
2023-08-12T14:00:15.646Z,19.44
2023-08-12T14:03:12.606Z,19.38
2023-08-12T14:06:09.543Z,19.26
2023-08-12T14:09:08.946Z,19.41
2023-08-12T14:12:06.605Z,19.52
2023-08-12T14:15:04.128Z,19.09
2023-08-12T14:18:01.251Z,19.01
2023-08-12T14:20:58.231Z,19.09
2023-08-12T14:23:55.157Z,19.19
2023-08-12T14:26:52.147Z,19.32
2023-08-12T14:29:49.091Z,19.20
2023-08-12T14:32:46.022Z,19.18
2023-08-12T14:35:42.942Z,19.31
2023-08-12T14:38:39.884Z,19.17
2023-08-12T14:41:36.752Z,19.39
2023-08-12T14:44:37.298Z,19.21
2023-08-12T14:47:34.454Z,19.02
2023-08-12T14:50:33.049Z,18.89
2023-08-12T14:53:30.292Z,19.23
2023-08-12T14:56:27.428Z,19.28
2023-08-12T14:59:24.687Z,19.80
2023-08-12T15:02:25.846Z,20.20
2023-08-12T15:05:22.848Z,21.09
2023-08-12T15:08:19.850Z,21.27
2023-08-12T15:11:16.908Z,22.33
2023-08-12T15:14:13.912Z,21.70
2023-08-12T15:17:11.283Z,22.28
2023-08-12T15:20:11.426Z,21.07
2023-08-12T15:23:08.415Z,21.02
2023-08-12T15:26:05.790Z,21.72
2023-08-12T15:29:02.791Z,21.94
2023-08-12T15:31:59.673Z,22.29
2023-08-12T15:34:56.568Z,21.70
2023-08-12T15:37:53.736Z,21.80
2023-08-12T15:40:50.719Z,21.23
2023-08-12T15:43:48.787Z,21.19
2023-08-12T15:46:45.926Z,21.15
2023-08-12T15:49:42.838Z,21.13
2023-08-12T15:52:39.883Z,20.90
2023-08-12T15:55:36.775Z,20.71
2023-08-12T15:58:33.658Z,20.87
2023-08-12T16:01:32.154Z,21.74
2023-08-12T16:04:29.079Z,21.44
2023-08-12T16:07:25.952Z,21.45
2023-08-12T16:10:22.889Z,21.41
2023-08-12T16:13:19.923Z,21.78
2023-08-12T16:16:16.906Z,20.77
2023-08-12T16:19:13.880Z,20.68
2023-08-12T16:22:11.025Z,20.79
2023-08-12T16:25:08.775Z,20.66
2023-08-12T16:28:05.731Z,21.66
2023-08-12T16:31:04.100Z,20.63
2023-08-12T16:34:01.026Z,20.20
2023-08-12T16:37:18.201Z,20.25
2023-08-12T16:40:15.252Z,20.01
2023-08-12T16:43:12.160Z,20.09
2023-08-12T16:46:12.915Z,19.84
2023-08-12T16:49:09.895Z,19.70
2023-08-12T16:52:06.870Z,19.71
2023-08-12T16:55:05.155Z,19.73
2023-08-12T16:58:02.494Z,19.51
2023-08-12T17:00:59.588Z,19.33
2023-08-12T17:03:56.744Z,19.65
2023-08-12T17:06:53.743Z,19.74
2023-08-12T17:09:50.664Z,19.43
2023-08-12T17:12:47.578Z,19.30
2023-08-12T17:15:46.288Z,19.23
2023-08-12T17:18:44.261Z,19.05
2023-08-12T17:21:44.078Z,18.83
2023-08-12T17:24:41.297Z,18.90
2023-08-12T17:27:38.153Z,19.12
2023-08-12T17:30:36.930Z,19.14
2023-08-12T17:33:33.825Z,19.03
2023-08-12T17:36:30.800Z,19.09
2023-08-12T17:39:27.792Z,18.87
2023-08-12T17:42:24.695Z,18.86
2023-08-12T17:45:21.604Z,18.93
2023-08-12T17:48:18.839Z,18.98
2023-08-12T17:51:18.870Z,19.09
2023-08-12T17:54:15.859Z,19.18
2023-08-12T17:57:12.745Z,19.15
2023-08-12T18:00:11.290Z,19.31
2023-08-12T18:03:08.412Z,19.19
2023-08-12T18:06:06.009Z,19.10
2023-08-12T18:09:05.773Z,19.09
2023-08-12T18:12:04.568Z,19.06
2023-08-12T18:15:01.819Z,19.17
2023-08-12T18:17:58.773Z,18.82
2023-08-12T18:20:55.792Z,19.08
2023-08-12T18:23:52.631Z,18.81
2023-08-12T18:26:49.571Z,18.85
2023-08-12T18:29:46.524Z,18.88
2023-08-12T18:32:43.576Z,18.91
2023-08-12T18:35:40.454Z,18.90
2023-08-12T18:38:37.414Z,18.84
2023-08-12T18:41:34.577Z,18.89
2023-08-12T18:44:31.498Z,18.62
2023-08-12T18:47:28.378Z,18.52
2023-08-12T18:50:25.830Z,18.45
2023-08-12T18:53:22.743Z,18.66
2023-08-12T18:56:19.605Z,18.60
2023-08-12T18:59:16.532Z,18.48
2023-08-12T19:02:13.719Z,18.60
2023-08-12T19:05:12.637Z,18.55
2023-08-12T19:08:14.759Z,18.70
2023-08-12T19:11:13.177Z,18.68
2023-08-12T19:14:10.501Z,18.72
2023-08-12T19:17:07.386Z,18.70
2023-08-12T19:20:05.614Z,18.72
2023-08-12T19:23:02.533Z,18.86
2023-08-12T19:25:59.522Z,18.62
2023-08-12T19:28:56.457Z,18.56
2023-08-12T19:31:53.436Z,18.56
2023-08-12T19:34:50.353Z,18.53
2023-08-12T19:37:48.810Z,18.62
2023-08-12T19:40:45.708Z,18.78
2023-08-12T19:43:42.588Z,18.55
2023-08-12T19:46:40.563Z,18.44
2023-08-12T19:49:37.531Z,18.61
2023-08-12T19:52:35.998Z,18.63
2023-08-12T19:55:32.897Z,18.60
2023-08-12T19:58:29.881Z,18.64
2023-08-12T20:01:26.796Z,18.59
2023-08-12T20:04:24.687Z,18.59
2023-08-12T20:07:21.631Z,18.76
2023-08-12T20:10:21.383Z,18.65
2023-08-12T20:13:18.248Z,18.42
2023-08-12T20:16:15.292Z,18.36
2023-08-12T20:19:12.272Z,18.51
2023-08-12T20:22:10.876Z,18.64
2023-08-12T20:25:09.679Z,18.55
2023-08-12T20:28:07.277Z,18.62
2023-08-12T20:31:04.148Z,18.59
2023-08-12T20:34:01.259Z,18.71
2023-08-12T20:36:58.281Z,18.66
2023-08-12T20:39:56.521Z,18.74
2023-08-12T20:42:53.430Z,18.69
2023-08-12T20:45:50.298Z,18.75
2023-08-12T20:48:47.164Z,18.72
2023-08-12T20:51:44.747Z,18.81
2023-08-12T20:54:42.212Z,18.83
2023-08-12T20:57:39.093Z,18.82
2023-08-12T21:00:35.996Z,18.66
2023-08-12T21:03:33.292Z,18.67
2023-08-12T21:06:30.315Z,18.70
2023-08-12T21:09:28.308Z,18.59
2023-08-12T21:12:25.211Z,18.47
2023-08-12T21:15:23.554Z,18.65
2023-08-12T21:18:20.445Z,18.63
2023-08-12T21:21:17.365Z,18.69
2023-08-12T21:24:14.237Z,18.68
2023-08-12T21:27:11.096Z,18.60
2023-08-12T21:30:08.751Z,18.69
2023-08-12T21:33:05.900Z,18.69
2023-08-12T21:36:02.873Z,18.67
2023-08-12T21:39:03.317Z,18.89
2023-08-12T21:42:00.285Z,18.62
2023-08-12T21:44:57.275Z,18.39
2023-08-12T21:47:54.275Z,18.72
2023-08-12T21:50:51.605Z,18.47
2023-08-12T21:53:48.567Z,18.53
2023-08-12T21:56:45.433Z,18.66
2023-08-12T21:59:42.320Z,18.86
2023-08-12T22:02:39.354Z,18.69
2023-08-12T22:05:36.409Z,18.69
2023-08-12T22:08:33.344Z,18.82
2023-08-12T22:11:30.334Z,18.80
2023-08-12T22:14:27.212Z,19.08
2023-08-12T22:17:24.519Z,18.88
2023-08-12T22:20:21.534Z,18.89
2023-08-12T22:23:19.771Z,18.94
2023-08-12T22:26:19.375Z,19.11
2023-08-12T22:29:16.214Z,19.19
2023-08-12T22:32:13.828Z,19.21
2023-08-12T22:35:10.969Z,19.26
2023-08-12T22:38:07.968Z,19.19
2023-08-12T22:41:04.848Z,19.08
2023-08-12T22:44:02.063Z,18.91
2023-08-12T22:46:58.968Z,18.88
2023-08-12T22:49:55.896Z,19.02
2023-08-12T22:52:52.802Z,18.81
2023-08-12T22:55:49.741Z,18.81
2023-08-12T22:58:46.625Z,18.99
2023-08-12T23:01:43.567Z,18.99
2023-08-12T23:04:40.439Z,19.01
2023-08-12T23:07:37.314Z,19.04
2023-08-12T23:10:34.184Z,19.03
2023-08-12T23:13:31.064Z,19.10
2023-08-12T23:16:30.641Z,19.00
2023-08-12T23:19:27.701Z,18.95
2023-08-12T23:22:24.614Z,18.92
2023-08-12T23:25:21.499Z,19.08
2023-08-12T23:28:19.768Z,19.12
2023-08-12T23:31:16.777Z,18.86
2023-08-12T23:34:13.700Z,18.95
2023-08-12T23:37:10.593Z,19.09
2023-08-12T23:40:08.748Z,19.00
2023-08-12T23:43:05.705Z,19.05
2023-08-12T23:46:02.706Z,19.14
2023-08-12T23:49:00.093Z,19.12
2023-08-12T23:51:57.124Z,19.04
2023-08-12T23:54:54.101Z,19.21
2023-08-12T23:57:50.960Z,19.00
